首页
METAR-TAF:

METAR-TAF

机场 :

Air Force Base

Langley, 弗吉尼亚州, 美国

纬度: 37-05N, 经度: 076-21W, 海拔: 3米

当前天气观测

该预报发布于34分钟前的02:56 UTC
风速10节,风向东转东北
温度 25°C
湿度 100%
气压 1019 hPa
能見度: 16.1公里
天空无云

METAR: KLFI 170256Z AUTO 06010KT 10SM CLR 25/25 A3010 RMK AO2 SLP199 T02450245 50004 $

时间: 23:30 (03:30 UTC)

预报

该预报发布于2小时和30分钟前的01:00 UTC
预报有效从17日的 01点(UTC)到 18日的 07点(UTC)
风速9节,风向
能见度10公里或以上
多云层高于2000英尺
阴天层高于2500英尺
成为
从 17日的 10点(UTC)到 17日的 11点(UTC)
风速10节,风向北转东北,有时为15节阵风
能見度: 6000
多云层高于700英尺
阴天层高于1500英尺
小阵雨
短暂存在
从 17日的 14点(UTC)到 17日的 18点(UTC)
风速15节,风向北转东北,有时为25节阵风
能見度: 4800
多云层高于700英尺, 积雨云.
阴天层高于1000英尺
雷暴, 小雨
成为
从 17日的 17点(UTC)到 17日的 18点(UTC)
风速10节,风向北转东北,有时为15节阵风
能见度10公里或以上
多云层高于1500英尺
多云层高于12000英尺

TAF: KLFI 170100Z 1701/1807 09009KT 9999 BKN020 OVC025 QNH3010INS BECMG 1710/1711 03010G15KT 6000 -SHRA BKN007 OVC015 QNH3007INS TEMPO 1714/1718 03015G25KT 4800 -TSRA BKN007CB OVC010 BECMG 1717/1718 03010G15KT 9999 NSW BKN015 BKN120 QNH3006INS TX26/1717Z TN23/1708Z

超过4000个机场的气象观测和天气预报(METAR&TAF报告)。

可查询的气象台以黄色和红色小点在地图上表示。

将鼠标移到小点上方,可查看气象台名称。

然后点击查看天气观测和预报。

如需切换地图:点击带黑十字的绿色按钮放大地图;点击带横线的绿色按钮缩小地图;或者点击绿色箭头查看邻近地区的地图。


METAR-TAF: